sensor_id;sensor_type;location;lat;lon;timestamp;P1;durP1;ratioP1;P2;durP2;ratioP2
61572;SDS011;47465;43.094;12.434;2023-06-14T00:01:52;15.55;;;7.15;;
61572;SDS011;47465;43.094;12.434;2023-06-14T00:04:20;15.60;;;7.57;;
61572;SDS011;47465;43.094;12.434;2023-06-14T00:06:47;19.45;;;8.10;;
61572;SDS011;47465;43.094;12.434;2023-06-14T00:09:15;18.27;;;7.80;;
61572;SDS011;47465;43.094;12.434;2023-06-14T00:11:43;15.05;;;6.93;;
61572;SDS011;47465;43.094;12.434;2023-06-14T00:14:09;16.05;;;7.40;;
61572;SDS011;47465;43.094;12.434;2023-06-14T00:16:35;15.32;;;6.65;;
61572;SDS011;47465;43.094;12.434;2023-06-14T00:19:03;15.20;;;6.78;;
61572;SDS011;47465;43.094;12.434;2023-06-14T00:21:32;15.38;;;6.75;;
61572;SDS011;47465;43.094;12.434;2023-06-14T00:23:58;14.40;;;7.32;;
61572;SDS011;47465;43.094;12.434;2023-06-14T00:26:24;17.10;;;7.53;;
61572;SDS011;47465;43.094;12.434;2023-06-14T00:28:51;16.15;;;7.30;;
61572;SDS011;47465;43.094;12.434;2023-06-14T00:31:17;18.20;;;8.13;;
61572;SDS011;47465;43.094;12.434;2023-06-14T00:33:43;15.32;;;7.25;;
61572;SDS011;47465;43.094;12.434;2023-06-14T00:36:09;18.35;;;7.93;;
61572;SDS011;47465;43.094;12.434;2023-06-14T00:38:37;18.38;;;8.40;;
61572;SDS011;47465;43.094;12.434;2023-06-14T00:41:03;15.48;;;7.85;;
61572;SDS011;47465;43.094;12.434;2023-06-14T00:43:29;21.13;;;8.88;;
61572;SDS011;47465;43.094;12.434;2023-06-14T00:45:55;22.00;;;9.45;;
61572;SDS011;47465;43.094;12.434;2023-06-14T00:48:21;16.42;;;7.60;;
61572;SDS011;47465;43.094;12.434;2023-06-14T00:50:49;16.50;;;7.53;;
61572;SDS011;47465;43.094;12.434;2023-06-14T00:53:16;14.43;;;6.97;;
61572;SDS011;47465;43.094;12.434;2023-06-14T00:55:44;15.20;;;7.93;;
61572;SDS011;47465;43.094;12.434;2023-06-14T00:58:10;14.02;;;7.63;;
61572;SDS011;47465;43.094;12.434;2023-06-14T01:00:36;19.30;;;7.45;;
61572;SDS011;47465;43.094;12.434;2023-06-14T01:03:02;15.60;;;7.47;;
61572;SDS011;47465;43.094;12.434;2023-06-14T01:05:28;16.40;;;7.55;;
61572;SDS011;47465;43.094;12.434;2023-06-14T01:08:01;12.77;;;7.30;;
61572;SDS011;47465;43.094;12.434;2023-06-14T01:10:38;14.57;;;6.90;;
61572;SDS011;47465;43.094;12.434;2023-06-14T01:13:12;21.38;;;7.70;;
61572;SDS011;47465;43.094;12.434;2023-06-14T01:15:45;18.05;;;7.57;;
61572;SDS011;47465;43.094;12.434;2023-06-14T01:18:12;16.92;;;7.10;;
61572;SDS011;47465;43.094;12.434;2023-06-14T01:20:42;13.82;;;7.07;;
61572;SDS011;47465;43.094;12.434;2023-06-14T01:23:11;14.73;;;6.32;;
61572;SDS011;47465;43.094;12.434;2023-06-14T01:25:37;12.93;;;6.82;;
61572;SDS011;47465;43.094;12.434;2023-06-14T01:28:05;16.10;;;7.00;;
61572;SDS011;47465;43.094;12.434;2023-06-14T01:30:40;14.52;;;6.35;;
61572;SDS011;47465;43.094;12.434;2023-06-14T01:33:10;12.93;;;5.95;;
61572;SDS011;47465;43.094;12.434;2023-06-14T01:35:38;13.43;;;6.72;;
61572;SDS011;47465;43.094;12.434;2023-06-14T01:38:04;14.05;;;7.07;;
61572;SDS011;47465;43.094;12.434;2023-06-14T01:40:33;17.80;;;6.75;;
61572;SDS011;47465;43.094;12.434;2023-06-14T01:43:00;20.60;;;6.68;;
61572;SDS011;47465;43.094;12.434;2023-06-14T01:45:27;14.73;;;6.40;;
61572;SDS011;47465;43.094;12.434;2023-06-14T01:47:54;20.38;;;7.03;;
61572;SDS011;47465;43.094;12.434;2023-06-14T01:50:21;14.95;;;7.43;;
61572;SDS011;47465;43.094;12.434;2023-06-14T01:52:47;17.13;;;7.60;;
61572;SDS011;47465;43.094;12.434;2023-06-14T01:55:13;18.08;;;7.18;;
61572;SDS011;47465;43.094;12.434;2023-06-14T01:57:40;16.35;;;7.68;;
61572;SDS011;47465;43.094;12.434;2023-06-14T02:00:07;15.82;;;6.97;;
61572;SDS011;47465;43.094;12.434;2023-06-14T02:02:35;14.63;;;7.55;;
61572;SDS011;47465;43.094;12.434;2023-06-14T02:05:01;15.77;;;7.32;;
61572;SDS011;47465;43.094;12.434;2023-06-14T02:07:28;19.05;;;8.07;;
61572;SDS011;47465;43.094;12.434;2023-06-14T02:09:54;14.05;;;6.80;;
61572;SDS011;47465;43.094;12.434;2023-06-14T02:12:20;11.40;;;6.07;;
61572;SDS011;47465;43.094;12.434;2023-06-14T02:14:47;10.68;;;6.00;;
61572;SDS011;47465;43.094;12.434;2023-06-14T02:17:14;13.93;;;5.43;;
61572;SDS011;47465;43.094;12.434;2023-06-14T02:19:40;15.57;;;5.65;;
61572;SDS011;47465;43.094;12.434;2023-06-14T02:22:06;25.73;;;6.47;;
61572;SDS011;47465;43.094;12.434;2023-06-14T02:24:32;8.23;;;4.90;;
61572;SDS011;47465;43.094;12.434;2023-06-14T02:26:58;9.65;;;5.05;;
61572;SDS011;47465;43.094;12.434;2023-06-14T02:29:25;11.15;;;5.05;;
61572;SDS011;47465;43.094;12.434;2023-06-14T02:31:52;11.52;;;5.80;;
61572;SDS011;47465;43.094;12.434;2023-06-14T02:34:18;13.38;;;5.18;;
61572;SDS011;47465;43.094;12.434;2023-06-14T02:36:45;14.15;;;6.13;;
61572;SDS011;47465;43.094;12.434;2023-06-14T02:39:13;12.35;;;5.30;;
61572;SDS011;47465;43.094;12.434;2023-06-14T02:41:39;9.73;;;5.30;;
61572;SDS011;47465;43.094;12.434;2023-06-14T02:44:06;10.45;;;5.35;;
61572;SDS011;47465;43.094;12.434;2023-06-14T02:46:32;11.02;;;5.60;;
61572;SDS011;47465;43.094;12.434;2023-06-14T02:49:00;13.02;;;5.30;;
61572;SDS011;47465;43.094;12.434;2023-06-14T02:51:26;11.55;;;5.38;;
61572;SDS011;47465;43.094;12.434;2023-06-14T02:53:52;10.55;;;6.28;;
61572;SDS011;47465;43.094;12.434;2023-06-14T02:56:18;13.13;;;6.30;;
61572;SDS011;47465;43.094;12.434;2023-06-14T02:58:44;11.75;;;5.95;;
61572;SDS011;47465;43.094;12.434;2023-06-14T03:01:11;12.95;;;6.22;;
61572;SDS011;47465;43.094;12.434;2023-06-14T03:03:39;11.65;;;5.90;;
61572;SDS011;47465;43.094;12.434;2023-06-14T03:06:06;11.93;;;5.95;;
61572;SDS011;47465;43.094;12.434;2023-06-14T03:08:33;15.27;;;6.17;;
61572;SDS011;47465;43.094;12.434;2023-06-14T03:11:03;13.18;;;5.47;;
61572;SDS011;47465;43.094;12.434;2023-06-14T03:13:31;9.23;;;5.15;;
61572;SDS011;47465;43.094;12.434;2023-06-14T03:15:58;12.40;;;5.90;;
61572;SDS011;47465;43.094;12.434;2023-06-14T03:18:28;9.73;;;5.07;;
61572;SDS011;47465;43.094;12.434;2023-06-14T03:20:55;10.57;;;5.55;;
61572;SDS011;47465;43.094;12.434;2023-06-14T03:23:25;11.27;;;5.63;;
61572;SDS011;47465;43.094;12.434;2023-06-14T03:25:51;10.68;;;5.65;;
61572;SDS011;47465;43.094;12.434;2023-06-14T03:28:17;12.18;;;5.38;;
61572;SDS011;47465;43.094;12.434;2023-06-14T03:30:43;9.20;;;5.22;;
61572;SDS011;47465;43.094;12.434;2023-06-14T03:33:09;10.48;;;5.25;;
61572;SDS011;47465;43.094;12.434;2023-06-14T03:35:35;9.77;;;5.10;;
61572;SDS011;47465;43.094;12.434;2023-06-14T03:38:02;9.73;;;4.70;;
61572;SDS011;47465;43.094;12.434;2023-06-14T03:40:30;10.93;;;5.43;;
61572;SDS011;47465;43.094;12.434;2023-06-14T03:42:57;13.43;;;5.05;;
61572;SDS011;47465;43.094;12.434;2023-06-14T03:45:23;9.55;;;5.13;;
61572;SDS011;47465;43.094;12.434;2023-06-14T03:47:49;8.57;;;4.88;;
61572;SDS011;47465;43.094;12.434;2023-06-14T03:50:16;9.73;;;4.75;;
61572;SDS011;47465;43.094;12.434;2023-06-14T03:52:43;10.65;;;4.82;;
61572;SDS011;47465;43.094;12.434;2023-06-14T03:55:09;10.85;;;4.68;;
61572;SDS011;47465;43.094;12.434;2023-06-14T04:00:06;9.63;;;4.47;;
61572;SDS011;47465;43.094;12.434;2023-06-14T04:02:33;8.02;;;4.22;;
61572;SDS011;47465;43.094;12.434;2023-06-14T04:05:02;8.60;;;4.43;;
61572;SDS011;47465;43.094;12.434;2023-06-14T04:07:28;8.57;;;4.82;;
61572;SDS011;47465;43.094;12.434;2023-06-14T04:09:55;9.38;;;4.60;;
61572;SDS011;47465;43.094;12.434;2023-06-14T04:12:21;9.05;;;4.78;;
61572;SDS011;47465;43.094;12.434;2023-06-14T04:14:48;9.25;;;4.45;;
61572;SDS011;47465;43.094;12.434;2023-06-14T04:17:15;9.17;;;4.87;;
61572;SDS011;47465;43.094;12.434;2023-06-14T04:19:41;7.75;;;4.32;;
61572;SDS011;47465;43.094;12.434;2023-06-14T04:22:07;8.32;;;4.20;;
61572;SDS011;47465;43.094;12.434;2023-06-14T04:24:33;8.85;;;4.13;;
61572;SDS011;47465;43.094;12.434;2023-06-14T04:27:00;6.78;;;4.07;;
61572;SDS011;47465;43.094;12.434;2023-06-14T04:29:27;8.27;;;4.03;;
61572;SDS011;47465;43.094;12.434;2023-06-14T04:31:56;6.93;;;4.28;;
61572;SDS011;47465;43.094;12.434;2023-06-14T04:34:26;9.05;;;4.10;;
61572;SDS011;47465;43.094;12.434;2023-06-14T04:36:55;7.20;;;4.00;;
61572;SDS011;47465;43.094;12.434;2023-06-14T04:39:21;7.13;;;3.85;;
61572;SDS011;47465;43.094;12.434;2023-06-14T04:41:48;7.88;;;3.80;;
61572;SDS011;47465;43.094;12.434;2023-06-14T04:44:18;7.57;;;3.70;;
61572;SDS011;47465;43.094;12.434;2023-06-14T04:46:45;5.97;;;3.53;;
61572;SDS011;47465;43.094;12.434;2023-06-14T04:49:13;6.72;;;3.83;;
61572;SDS011;47465;43.094;12.434;2023-06-14T04:54:57;5.70;;;3.40;;
61572;SDS011;47465;43.094;12.434;2023-06-14T04:57:24;5.60;;;3.47;;
61572;SDS011;47465;43.094;12.434;2023-06-14T04:59:50;5.88;;;3.63;;
61572;SDS011;47465;43.094;12.434;2023-06-14T05:02:20;7.53;;;3.80;;
61572;SDS011;47465;43.094;12.434;2023-06-14T05:04:49;6.45;;;3.60;;
61572;SDS011;47465;43.094;12.434;2023-06-14T05:07:15;7.55;;;3.95;;
61572;SDS011;47465;43.094;12.434;2023-06-14T05:09:42;5.75;;;3.50;;
61572;SDS011;47465;43.094;12.434;2023-06-14T05:12:08;7.25;;;3.50;;
61572;SDS011;47465;43.094;12.434;2023-06-14T05:14:35;7.78;;;3.90;;
61572;SDS011;47465;43.094;12.434;2023-06-14T05:17:01;6.80;;;3.75;;
61572;SDS011;47465;43.094;12.434;2023-06-14T05:19:27;7.50;;;3.67;;
61572;SDS011;47465;43.094;12.434;2023-06-14T05:21:58;7.82;;;3.45;;
61572;SDS011;47465;43.094;12.434;2023-06-14T05:24:24;6.93;;;3.58;;
61572;SDS011;47465;43.094;12.434;2023-06-14T05:26:50;6.90;;;3.55;;
61572;SDS011;47465;43.094;12.434;2023-06-14T05:29:17;5.13;;;3.08;;
61572;SDS011;47465;43.094;12.434;2023-06-14T05:31:43;7.00;;;3.83;;
61572;SDS011;47465;43.094;12.434;2023-06-14T05:34:09;6.05;;;3.70;;
61572;SDS011;47465;43.094;12.434;2023-06-14T05:36:35;6.07;;;3.33;;
61572;SDS011;47465;43.094;12.434;2023-06-14T05:39:03;6.45;;;3.50;;
61572;SDS011;47465;43.094;12.434;2023-06-14T05:43:57;6.55;;;3.55;;
61572;SDS011;47465;43.094;12.434;2023-06-14T05:46:23;6.50;;;3.80;;
61572;SDS011;47465;43.094;12.434;2023-06-14T05:48:50;7.28;;;4.13;;
61572;SDS011;47465;43.094;12.434;2023-06-14T05:51:16;6.68;;;3.88;;
61572;SDS011;47465;43.094;12.434;2023-06-14T05:53:46;7.38;;;3.85;;
61572;SDS011;47465;43.094;12.434;2023-06-14T05:56:13;6.72;;;3.47;;
61572;SDS011;47465;43.094;12.434;2023-06-14T05:58:40;6.80;;;3.53;;
61572;SDS011;47465;43.094;12.434;2023-06-14T06:01:06;6.72;;;3.65;;
61572;SDS011;47465;43.094;12.434;2023-06-14T06:03:32;6.75;;;4.10;;
61572;SDS011;47465;43.094;12.434;2023-06-14T06:05:59;7.05;;;4.10;;
61572;SDS011;47465;43.094;12.434;2023-06-14T06:08:26;8.50;;;3.92;;
61572;SDS011;47465;43.094;12.434;2023-06-14T06:10:52;7.28;;;3.58;;
61572;SDS011;47465;43.094;12.434;2023-06-14T06:13:19;6.40;;;3.92;;
61572;SDS011;47465;43.094;12.434;2023-06-14T06:15:46;8.10;;;4.35;;
61572;SDS011;47465;43.094;12.434;2023-06-14T06:18:13;7.43;;;4.10;;
61572;SDS011;47465;43.094;12.434;2023-06-14T06:20:39;7.93;;;4.10;;
61572;SDS011;47465;43.094;12.434;2023-06-14T06:23:05;8.20;;;4.70;;
61572;SDS011;47465;43.094;12.434;2023-06-14T06:25:33;11.35;;;5.22;;
61572;SDS011;47465;43.094;12.434;2023-06-14T06:27:59;10.18;;;5.35;;
61572;SDS011;47465;43.094;12.434;2023-06-14T06:30:26;12.45;;;6.22;;
61572;SDS011;47465;43.094;12.434;2023-06-14T06:32:52;9.75;;;6.30;;
61572;SDS011;47465;43.094;12.434;2023-06-14T06:35:18;10.63;;;5.65;;
61572;SDS011;47465;43.094;12.434;2023-06-14T06:37:45;12.90;;;6.80;;
61572;SDS011;47465;43.094;12.434;2023-06-14T06:40:11;15.18;;;7.82;;
61572;SDS011;47465;43.094;12.434;2023-06-14T06:42:37;13.00;;;7.10;;
61572;SDS011;47465;43.094;12.434;2023-06-14T06:45:04;13.60;;;7.38;;
61572;SDS011;47465;43.094;12.434;2023-06-14T06:47:32;15.68;;;7.55;;
61572;SDS011;47465;43.094;12.434;2023-06-14T06:49:58;12.93;;;6.88;;
61572;SDS011;47465;43.094;12.434;2023-06-14T06:52:25;12.90;;;7.72;;
61572;SDS011;47465;43.094;12.434;2023-06-14T06:54:51;16.60;;;9.00;;
61572;SDS011;47465;43.094;12.434;2023-06-14T06:59:46;14.20;;;7.43;;
61572;SDS011;47465;43.094;12.434;2023-06-14T07:02:12;12.90;;;7.00;;
61572;SDS011;47465;43.094;12.434;2023-06-14T07:04:39;14.30;;;7.10;;
61572;SDS011;47465;43.094;12.434;2023-06-14T07:07:06;13.30;;;7.13;;
61572;SDS011;47465;43.094;12.434;2023-06-14T07:09:34;13.18;;;6.95;;
61572;SDS011;47465;43.094;12.434;2023-06-14T07:12:01;13.23;;;7.00;;
61572;SDS011;47465;43.094;12.434;2023-06-14T07:14:27;17.10;;;8.00;;
61572;SDS011;47465;43.094;12.434;2023-06-14T07:16:55;13.00;;;6.60;;
61572;SDS011;47465;43.094;12.434;2023-06-14T07:19:21;15.13;;;6.57;;
61572;SDS011;47465;43.094;12.434;2023-06-14T07:21:48;12.40;;;6.28;;
61572;SDS011;47465;43.094;12.434;2023-06-14T07:24:15;13.90;;;7.47;;
61572;SDS011;47465;43.094;12.434;2023-06-14T07:26:41;14.75;;;6.90;;
61572;SDS011;47465;43.094;12.434;2023-06-14T07:29:07;12.15;;;6.82;;
61572;SDS011;47465;43.094;12.434;2023-06-14T07:31:33;10.55;;;6.35;;
61572;SDS011;47465;43.094;12.434;2023-06-14T07:33:59;11.57;;;6.10;;
61572;SDS011;47465;43.094;12.434;2023-06-14T07:36:26;10.90;;;5.60;;
61572;SDS011;47465;43.094;12.434;2023-06-14T07:41:22;8.82;;;5.50;;
61572;SDS011;47465;43.094;12.434;2023-06-14T07:43:48;9.60;;;5.50;;
61572;SDS011;47465;43.094;12.434;2023-06-14T07:46:14;8.18;;;5.30;;
61572;SDS011;47465;43.094;12.434;2023-06-14T07:48:40;9.48;;;4.78;;
61572;SDS011;47465;43.094;12.434;2023-06-14T07:51:07;9.30;;;5.35;;
61572;SDS011;47465;43.094;12.434;2023-06-14T07:53:33;12.52;;;5.78;;
61572;SDS011;47465;43.094;12.434;2023-06-14T07:56:00;10.15;;;5.57;;
61572;SDS011;47465;43.094;12.434;2023-06-14T07:58:27;9.88;;;5.68;;
61572;SDS011;47465;43.094;12.434;2023-06-14T08:00:54;9.27;;;5.53;;
61572;SDS011;47465;43.094;12.434;2023-06-14T08:03:20;9.50;;;5.60;;
61572;SDS011;47465;43.094;12.434;2023-06-14T08:05:47;9.85;;;6.05;;
61572;SDS011;47465;43.094;12.434;2023-06-14T08:08:14;13.18;;;5.78;;
61572;SDS011;47465;43.094;12.434;2023-06-14T08:10:40;11.07;;;5.85;;
61572;SDS011;47465;43.094;12.434;2023-06-14T08:13:08;8.05;;;5.50;;
61572;SDS011;47465;43.094;12.434;2023-06-14T08:15:35;10.73;;;6.25;;
61572;SDS011;47465;43.094;12.434;2023-06-14T08:18:03;9.20;;;6.03;;
61572;SDS011;47465;43.094;12.434;2023-06-14T08:20:29;12.57;;;6.20;;
61572;SDS011;47465;43.094;12.434;2023-06-14T08:22:56;11.85;;;6.60;;
61572;SDS011;47465;43.094;12.434;2023-06-14T08:25:23;11.07;;;6.55;;
61572;SDS011;47465;43.094;12.434;2023-06-14T08:27:49;15.10;;;7.25;;
61572;SDS011;47465;43.094;12.434;2023-06-14T08:30:18;11.68;;;6.13;;
61572;SDS011;47465;43.094;12.434;2023-06-14T08:32:44;11.97;;;6.73;;
61572;SDS011;47465;43.094;12.434;2023-06-14T08:35:10;11.10;;;6.50;;
61572;SDS011;47465;43.094;12.434;2023-06-14T08:37:40;12.10;;;6.32;;
61572;SDS011;47465;43.094;12.434;2023-06-14T08:40:11;10.00;;;6.40;;
61572;SDS011;47465;43.094;12.434;2023-06-14T08:42:44;10.73;;;6.30;;
61572;SDS011;47465;43.094;12.434;2023-06-14T08:45:13;10.65;;;6.55;;
61572;SDS011;47465;43.094;12.434;2023-06-14T08:47:41;11.77;;;6.40;;
61572;SDS011;47465;43.094;12.434;2023-06-14T08:50:08;13.02;;;7.55;;
61572;SDS011;47465;43.094;12.434;2023-06-14T08:52:38;14.43;;;7.18;;
61572;SDS011;47465;43.094;12.434;2023-06-14T08:55:10;17.45;;;7.72;;
61572;SDS011;47465;43.094;12.434;2023-06-14T08:57:37;17.50;;;7.68;;
61572;SDS011;47465;43.094;12.434;2023-06-14T09:00:07;10.80;;;7.20;;
61572;SDS011;47465;43.094;12.434;2023-06-14T09:02:38;13.35;;;7.20;;
61572;SDS011;47465;43.094;12.434;2023-06-14T09:05:10;12.85;;;6.30;;
61572;SDS011;47465;43.094;12.434;2023-06-14T09:07:38;12.65;;;6.20;;
61572;SDS011;47465;43.094;12.434;2023-06-14T09:10:07;12.93;;;6.70;;
61572;SDS011;47465;43.094;12.434;2023-06-14T09:12:36;14.52;;;6.63;;
61572;SDS011;47465;43.094;12.434;2023-06-14T09:15:03;10.18;;;6.35;;
61572;SDS011;47465;43.094;12.434;2023-06-14T09:17:32;14.17;;;7.03;;
61572;SDS011;47465;43.094;12.434;2023-06-14T09:22:27;16.27;;;6.90;;
61572;SDS011;47465;43.094;12.434;2023-06-14T09:24:55;17.48;;;7.18;;
61572;SDS011;47465;43.094;12.434;2023-06-14T09:27:21;10.23;;;6.25;;
61572;SDS011;47465;43.094;12.434;2023-06-14T09:33:07;10.18;;;5.93;;
61572;SDS011;47465;43.094;12.434;2023-06-14T09:35:33;9.70;;;6.28;;
61572;SDS011;47465;43.094;12.434;2023-06-14T09:38:01;10.10;;;6.07;;
61572;SDS011;47465;43.094;12.434;2023-06-14T09:40:27;9.80;;;5.60;;
61572;SDS011;47465;43.094;12.434;2023-06-14T09:42:53;10.70;;;5.85;;
61572;SDS011;47465;43.094;12.434;2023-06-14T09:45:23;10.68;;;5.40;;
61572;SDS011;47465;43.094;12.434;2023-06-14T09:47:49;12.27;;;5.72;;
61572;SDS011;47465;43.094;12.434;2023-06-14T09:50:16;9.77;;;5.72;;
61572;SDS011;47465;43.094;12.434;2023-06-14T09:52:42;9.25;;;5.47;;
61572;SDS011;47465;43.094;12.434;2023-06-14T09:55:14;9.93;;;6.37;;
61572;SDS011;47465;43.094;12.434;2023-06-14T09:57:45;8.63;;;4.80;;
61572;SDS011;47465;43.094;12.434;2023-06-14T10:00:13;8.13;;;5.22;;
61572;SDS011;47465;43.094;12.434;2023-06-14T10:05:12;9.43;;;5.68;;
61572;SDS011;47465;43.094;12.434;2023-06-14T10:07:42;7.65;;;4.75;;
61572;SDS011;47465;43.094;12.434;2023-06-14T10:10:15;8.18;;;4.70;;
61572;SDS011;47465;43.094;12.434;2023-06-14T10:12:41;8.23;;;5.13;;
61572;SDS011;47465;43.094;12.434;2023-06-14T10:15:08;12.45;;;5.10;;
61572;SDS011;47465;43.094;12.434;2023-06-14T10:17:39;10.60;;;5.18;;
61572;SDS011;47465;43.094;12.434;2023-06-14T10:20:18;11.15;;;5.65;;
61572;SDS011;47465;43.094;12.434;2023-06-14T10:22:53;8.75;;;5.30;;
61572;SDS011;47465;43.094;12.434;2023-06-14T10:25:30;10.55;;;6.07;;
61572;SDS011;47465;43.094;12.434;2023-06-14T10:28:03;10.43;;;5.22;;
61572;SDS011;47465;43.094;12.434;2023-06-14T10:33:33;9.75;;;6.75;;
61572;SDS011;47465;43.094;12.434;2023-06-14T10:36:10;8.77;;;5.82;;
61572;SDS011;47465;43.094;12.434;2023-06-14T10:39:00;9.10;;;5.60;;
61572;SDS011;47465;43.094;12.434;2023-06-14T10:41:31;8.82;;;5.53;;
61572;SDS011;47465;43.094;12.434;2023-06-14T10:47:20;9.13;;;5.97;;
61572;SDS011;47465;43.094;12.434;2023-06-14T10:49:51;10.00;;;5.53;;
61572;SDS011;47465;43.094;12.434;2023-06-14T10:52:21;12.55;;;5.78;;
61572;SDS011;47465;43.094;12.434;2023-06-14T10:57:40;8.18;;;5.45;;
61572;SDS011;47465;43.094;12.434;2023-06-14T11:00:08;8.93;;;5.50;;
61572;SDS011;47465;43.094;12.434;2023-06-14T11:05:49;8.98;;;5.65;;
61572;SDS011;47465;43.094;12.434;2023-06-14T11:08:27;8.18;;;5.03;;
61572;SDS011;47465;43.094;12.434;2023-06-14T11:11:18;8.27;;;5.78;;
61572;SDS011;47465;43.094;12.434;2023-06-14T11:13:50;12.15;;;5.70;;
61572;SDS011;47465;43.094;12.434;2023-06-14T11:16:17;10.57;;;5.70;;
61572;SDS011;47465;43.094;12.434;2023-06-14T11:18:44;8.32;;;5.45;;
61572;SDS011;47465;43.094;12.434;2023-06-14T11:21:11;9.75;;;5.97;;
61572;SDS011;47465;43.094;12.434;2023-06-14T11:23:40;10.38;;;5.97;;
61572;SDS011;47465;43.094;12.434;2023-06-14T11:26:06;8.85;;;6.22;;
61572;SDS011;47465;43.094;12.434;2023-06-14T11:28:36;9.65;;;6.15;;
61572;SDS011;47465;43.094;12.434;2023-06-14T11:31:04;11.57;;;6.30;;
61572;SDS011;47465;43.094;12.434;2023-06-14T11:33:30;9.65;;;6.15;;
61572;SDS011;47465;43.094;12.434;2023-06-14T11:35:56;8.65;;;6.45;;
61572;SDS011;47465;43.094;12.434;2023-06-14T11:38:23;10.23;;;6.03;;
61572;SDS011;47465;43.094;12.434;2023-06-14T11:40:50;13.18;;;6.20;;
61572;SDS011;47465;43.094;12.434;2023-06-14T11:43:16;12.27;;;6.22;;
61572;SDS011;47465;43.094;12.434;2023-06-14T11:45:42;9.10;;;4.70;;
61572;SDS011;47465;43.094;12.434;2023-06-14T11:48:09;11.52;;;4.43;;
61572;SDS011;47465;43.094;12.434;2023-06-14T11:50:37;7.88;;;3.67;;
61572;SDS011;47465;43.094;12.434;2023-06-14T11:53:03;7.18;;;3.72;;
61572;SDS011;47465;43.094;12.434;2023-06-14T11:55:32;4.82;;;3.28;;
61572;SDS011;47465;43.094;12.434;2023-06-14T11:58:01;5.63;;;3.38;;
61572;SDS011;47465;43.094;12.434;2023-06-14T12:00:28;6.78;;;3.50;;
61572;SDS011;47465;43.094;12.434;2023-06-14T12:02:54;7.88;;;3.78;;
61572;SDS011;47465;43.094;12.434;2023-06-14T12:05:23;8.68;;;4.07;;
61572;SDS011;47465;43.094;12.434;2023-06-14T12:07:50;6.97;;;4.03;;
61572;SDS011;47465;43.094;12.434;2023-06-14T12:12:44;10.07;;;4.93;;
61572;SDS011;47465;43.094;12.434;2023-06-14T12:15:11;13.00;;;6.10;;
61572;SDS011;47465;43.094;12.434;2023-06-14T12:17:37;13.00;;;6.55;;
61572;SDS011;47465;43.094;12.434;2023-06-14T12:20:07;14.25;;;6.30;;
61572;SDS011;47465;43.094;12.434;2023-06-14T12:22:52;10.70;;;6.03;;
61572;SDS011;47465;43.094;12.434;2023-06-14T12:25:28;15.55;;;5.80;;
61572;SDS011;47465;43.094;12.434;2023-06-14T12:27:57;15.25;;;7.53;;
61572;SDS011;47465;43.094;12.434;2023-06-14T12:30:23;18.35;;;6.72;;
61572;SDS011;47465;43.094;12.434;2023-06-14T12:32:50;11.68;;;6.13;;
61572;SDS011;47465;43.094;12.434;2023-06-14T12:35:16;11.55;;;6.18;;
61572;SDS011;47465;43.094;12.434;2023-06-14T12:37:43;10.60;;;6.03;;
61572;SDS011;47465;43.094;12.434;2023-06-14T12:40:12;13.00;;;6.72;;
61572;SDS011;47465;43.094;12.434;2023-06-14T12:42:39;13.60;;;6.85;;
61572;SDS011;47465;43.094;12.434;2023-06-14T12:45:07;10.65;;;6.63;;
61572;SDS011;47465;43.094;12.434;2023-06-14T12:47:34;11.88;;;6.13;;
61572;SDS011;47465;43.094;12.434;2023-06-14T12:50:00;9.27;;;5.53;;
61572;SDS011;47465;43.094;12.434;2023-06-14T12:52:26;8.57;;;4.97;;
61572;SDS011;47465;43.094;12.434;2023-06-14T12:54:52;11.02;;;5.60;;
61572;SDS011;47465;43.094;12.434;2023-06-14T12:57:20;12.68;;;5.10;;
61572;SDS011;47465;43.094;12.434;2023-06-14T12:59:46;8.40;;;4.78;;
61572;SDS011;47465;43.094;12.434;2023-06-14T13:02:12;10.40;;;5.10;;
61572;SDS011;47465;43.094;12.434;2023-06-14T13:04:39;9.10;;;4.70;;
61572;SDS011;47465;43.094;12.434;2023-06-14T13:07:05;9.52;;;4.93;;
61572;SDS011;47465;43.094;12.434;2023-06-14T13:09:31;9.90;;;4.90;;
61572;SDS011;47465;43.094;12.434;2023-06-14T13:11:57;9.05;;;4.70;;
61572;SDS011;47465;43.094;12.434;2023-06-14T13:14:25;7.63;;;4.50;;
61572;SDS011;47465;43.094;12.434;2023-06-14T13:16:51;7.97;;;3.88;;
61572;SDS011;47465;43.094;12.434;2023-06-14T13:19:20;8.40;;;4.20;;
61572;SDS011;47465;43.094;12.434;2023-06-14T13:21:46;7.45;;;4.10;;
61572;SDS011;47465;43.094;12.434;2023-06-14T13:24:13;7.65;;;4.20;;
61572;SDS011;47465;43.094;12.434;2023-06-14T13:26:40;8.18;;;4.30;;
61572;SDS011;47465;43.094;12.434;2023-06-14T13:29:07;7.47;;;4.55;;
61572;SDS011;47465;43.094;12.434;2023-06-14T13:31:35;10.15;;;4.72;;
61572;SDS011;47465;43.094;12.434;2023-06-14T13:34:01;9.93;;;5.17;;
61572;SDS011;47465;43.094;12.434;2023-06-14T13:36:28;9.82;;;4.85;;
61572;SDS011;47465;43.094;12.434;2023-06-14T13:38:55;8.48;;;5.10;;
61572;SDS011;47465;43.094;12.434;2023-06-14T13:41:21;9.35;;;5.47;;
61572;SDS011;47465;43.094;12.434;2023-06-14T13:43:55;10.93;;;5.30;;
61572;SDS011;47465;43.094;12.434;2023-06-14T13:46:21;12.10;;;5.20;;
61572;SDS011;47465;43.094;12.434;2023-06-14T13:48:48;13.68;;;5.65;;
61572;SDS011;47465;43.094;12.434;2023-06-14T13:51:14;10.90;;;5.25;;
61572;SDS011;47465;43.094;12.434;2023-06-14T13:53:40;9.80;;;5.28;;
61572;SDS011;47465;43.094;12.434;2023-06-14T13:56:06;8.05;;;4.72;;
61572;SDS011;47465;43.094;12.434;2023-06-14T13:58:32;6.93;;;3.47;;
61572;SDS011;47465;43.094;12.434;2023-06-14T14:00:58;7.25;;;3.58;;
61572;SDS011;47465;43.094;12.434;2023-06-14T14:03:26;10.10;;;4.90;;
61572;SDS011;47465;43.094;12.434;2023-06-14T14:05:54;8.80;;;4.68;;
61572;SDS011;47465;43.094;12.434;2023-06-14T14:08:21;11.52;;;4.80;;
61572;SDS011;47465;43.094;12.434;2023-06-14T14:10:47;11.70;;;5.07;;
61572;SDS011;47465;43.094;12.434;2023-06-14T14:13:13;8.90;;;4.60;;
61572;SDS011;47465;43.094;12.434;2023-06-14T14:15:39;10.30;;;4.85;;
61572;SDS011;47465;43.094;12.434;2023-06-14T14:18:06;10.23;;;4.32;;
61572;SDS011;47465;43.094;12.434;2023-06-14T14:20:32;7.43;;;4.43;;
61572;SDS011;47465;43.094;12.434;2023-06-14T14:23:00;8.05;;;4.40;;
61572;SDS011;47465;43.094;12.434;2023-06-14T14:25:28;7.82;;;4.35;;
61572;SDS011;47465;43.094;12.434;2023-06-14T14:27:55;7.13;;;3.95;;
61572;SDS011;47465;43.094;12.434;2023-06-14T14:30:21;8.40;;;4.20;;
61572;SDS011;47465;43.094;12.434;2023-06-14T14:32:48;9.13;;;4.50;;
61572;SDS011;47465;43.094;12.434;2023-06-14T14:35:16;8.25;;;4.25;;
61572;SDS011;47465;43.094;12.434;2023-06-14T14:37:42;7.13;;;4.22;;
61572;SDS011;47465;43.094;12.434;2023-06-14T14:40:10;10.68;;;4.60;;
61572;SDS011;47465;43.094;12.434;2023-06-14T14:42:37;8.45;;;4.35;;
61572;SDS011;47465;43.094;12.434;2023-06-14T14:45:03;7.43;;;4.10;;
61572;SDS011;47465;43.094;12.434;2023-06-14T14:47:31;19.85;;;5.00;;
61572;SDS011;47465;43.094;12.434;2023-06-14T14:49:57;8.82;;;4.88;;
61572;SDS011;47465;43.094;12.434;2023-06-14T14:52:23;7.28;;;4.43;;
61572;SDS011;47465;43.094;12.434;2023-06-14T14:54:50;7.10;;;4.05;;
61572;SDS011;47465;43.094;12.434;2023-06-14T14:57:18;8.05;;;4.47;;
61572;SDS011;47465;43.094;12.434;2023-06-14T14:59:48;9.43;;;4.78;;
61572;SDS011;47465;43.094;12.434;2023-06-14T15:02:14;10.70;;;4.53;;
61572;SDS011;47465;43.094;12.434;2023-06-14T15:04:40;9.52;;;4.75;;
61572;SDS011;47465;43.094;12.434;2023-06-14T15:07:06;9.25;;;5.03;;